THY6QT LTFM-LTAJ
Flight info
| Callsign | THY6QT |
|---|---|
| Flight time | 1h 20m |
| Altitude | 39000 |
| Route | VICEN1E/36 VICEN UT57 VEVUD UT341 BAG UL605 RATSI UA17 ASBOM |
| Aircraft | A20N/M-SDE2E3FGHIRWXY/LB1 |
Departure
| Time | 2026-05-04 16:15 |
|---|---|
| Airport | İstanbul Airport (LTFM) |
Arrival
| Time | 2026-05-04 17:35 |
|---|---|
| Airport | Gaziantep Oğuzeli International Airport (LTAJ) |
| Time | Latitude | Longitude | Altitude | Speed | Heading |
|---|---|---|---|---|---|
| 2026-05-04 15:33 | 41.25714 | 28.74894 | 311 ft | 0 kts | 359° |
| 2026-05-04 15:54 | 41.25701 | 28.74895 | 310 ft | 2 kts | 353° |
| 2026-05-04 15:55 | 41.25684 | 28.74898 | 310 ft | 2 kts | 345° |
| 2026-05-04 15:55 | 41.25668 | 28.74906 | 310 ft | 2 kts | 331° |
| 2026-05-04 15:55 | 41.25655 | 28.74918 | 310 ft | 2 kts | 312° |
| 2026-05-04 15:55 | 41.25645 | 28.74936 | 310 ft | 2 kts | 290° |
| 2026-05-04 15:56 | 41.25642 | 28.74958 | 310 ft | 2 kts | 272° |
| 2026-05-04 15:56 | 41.25641 | 28.74980 | 309 ft | 2 kts | 306° |
| 2026-05-04 15:56 | 41.25629 | 28.74995 | 309 ft | 2 kts | 322° |
| 2026-05-04 15:56 | 41.25616 | 28.75008 | 308 ft | 2 kts | 329° |
| 2026-05-04 15:57 | 41.25601 | 28.75018 | 308 ft | 2 kts | 334° |
| 2026-05-04 15:57 | 41.25591 | 28.75025 | 310 ft | 2 kts | 337° |
| 2026-05-04 15:57 | 41.25576 | 28.75032 | 308 ft | 2 kts | 343° |
| 2026-05-04 15:57 | 41.25569 | 28.75035 | 309 ft | 1 kts | 350° |
| 2026-05-04 15:58 | 41.25565 | 28.75037 | 309 ft | 1 kts | 9° |
| 2026-05-04 15:58 | 41.25556 | 28.75034 | 309 ft | 2 kts | 6° |
| 2026-05-04 15:59 | 41.25576 | 28.75033 | 308 ft | 3 kts | 360° |
| 2026-05-04 15:59 | 41.25581 | 28.75033 | 308 ft | 2 kts | 360° |
| 2026-05-04 15:59 | 41.25587 | 28.75033 | 309 ft | 0 kts | 360° |
| 2026-05-04 16:09 | 41.25612 | 28.75037 | 311 ft | 5 kts | 13° |
| 2026-05-04 16:09 | 41.25646 | 28.75145 | 310 ft | 9 kts | 78° |
| 2026-05-04 16:10 | 41.25739 | 28.75157 | 312 ft | 12 kts | 357° |
| 2026-05-04 16:11 | 41.25889 | 28.75389 | 313 ft | 13 kts | 6° |
| 2026-05-04 16:11 | 41.25980 | 28.75387 | 314 ft | 14 kts | 359° |
| 2026-05-04 16:12 | 41.26244 | 28.75450 | 315 ft | 11 kts | 86° |
| 2026-05-04 16:12 | 41.26244 | 28.75538 | 318 ft | 0 kts | 90° |
| 2026-05-04 16:13 | 41.26244 | 28.75550 | 318 ft | 5 kts | 90° |
| 2026-05-04 16:14 | 41.26286 | 28.75669 | 324 ft | 9 kts | 14° |
| 2026-05-04 16:14 | 41.26746 | 28.75661 | 322 ft | 99 kts | 359° |
| 2026-05-04 16:15 | 41.29926 | 28.75776 | 2462 ft | 161 kts | 7° |
| 2026-05-04 16:16 | 41.32413 | 28.75769 | 3745 ft | 197 kts | 359° |
| 2026-05-04 16:16 | 41.36368 | 28.78018 | 6106 ft | 239 kts | 50° |
| 2026-05-04 16:17 | 41.38028 | 28.81909 | 8264 ft | 245 kts | 65° |
| 2026-05-04 16:18 | 41.38166 | 28.89079 | 10623 ft | 296 kts | 100° |
| 2026-05-04 16:18 | 41.37205 | 28.91668 | 10978 ft | 331 kts | 122° |
| 2026-05-04 16:19 | 41.30473 | 28.95119 | 13293 ft | 376 kts | 177° |
| 2026-05-04 16:19 | 41.25179 | 28.94976 | 14890 ft | 384 kts | 181° |
| 2026-05-04 16:20 | 41.17084 | 28.94085 | 17265 ft | 393 kts | 182° |
| 2026-05-04 16:20 | 41.14117 | 28.93806 | 18092 ft | 397 kts | 182° |
| 2026-05-04 16:22 | 41.10857 | 28.93506 | 18907 ft | 401 kts | 181° |
| 2026-05-04 16:22 | 41.02438 | 28.93625 | 20754 ft | 406 kts | 159° |
| 2026-05-04 16:23 | 40.95846 | 29.00223 | 22578 ft | 401 kts | 128° |
| 2026-05-04 16:24 | 40.87927 | 29.10969 | 24021 ft | 410 kts | 131° |
| 2026-05-04 16:25 | 40.84491 | 29.16840 | 24024 ft | 400 kts | 112° |
| 2026-05-04 16:26 | 40.81328 | 29.30649 | 24200 ft | 397 kts | 102° |
| 2026-05-04 16:26 | 40.79186 | 29.41198 | 25949 ft | 399 kts | 102° |
| 2026-05-04 16:27 | 40.77671 | 29.48272 | 26970 ft | 402 kts | 103° |
| 2026-05-04 16:28 | 40.75324 | 29.58975 | 28432 ft | 407 kts | 104° |
| 2026-05-04 16:28 | 40.72957 | 29.69711 | 29779 ft | 412 kts | 104° |
| 2026-05-04 16:29 | 40.69693 | 29.84440 | 31016 ft | 425 kts | 104° |
| 2026-05-04 16:30 | 40.67164 | 29.95783 | 32053 ft | 430 kts | 105° |
| 2026-05-04 16:31 | 40.65478 | 30.03307 | 32818 ft | 430 kts | 105° |
| 2026-05-04 16:31 | 40.62915 | 30.14705 | 33777 ft | 435 kts | 105° |
| 2026-05-04 16:32 | 40.60352 | 30.26046 | 34583 ft | 439 kts | 106° |
| 2026-05-04 16:33 | 40.58610 | 30.33715 | 35090 ft | 440 kts | 106° |
| 2026-05-04 16:33 | 40.56846 | 30.41464 | 35554 ft | 443 kts | 106° |
| 2026-05-04 16:34 | 40.55065 | 30.49255 | 35991 ft | 446 kts | 106° |
| 2026-05-04 16:34 | 40.54171 | 30.53158 | 36222 ft | 446 kts | 107° |
| 2026-05-04 16:35 | 40.51468 | 30.64914 | 36875 ft | 449 kts | 107° |
| 2026-05-04 16:35 | 40.48745 | 30.76691 | 37499 ft | 450 kts | 107° |
| 2026-05-04 16:36 | 40.47830 | 30.80634 | 37702 ft | 451 kts | 107° |
| 2026-05-04 16:36 | 40.45995 | 30.88528 | 38089 ft | 452 kts | 107° |
| 2026-05-04 16:37 | 40.44165 | 30.96368 | 38464 ft | 452 kts | 107° |
| 2026-05-04 16:37 | 40.43241 | 31.00316 | 38642 ft | 453 kts | 108° |
| 2026-05-04 16:37 | 40.41388 | 31.08219 | 38918 ft | 453 kts | 108° |
| 2026-05-04 16:38 | 40.39529 | 31.16119 | 38994 ft | 453 kts | 108° |
| 2026-05-04 16:39 | 40.35827 | 31.36149 | 38975 ft | 452 kts | 103° |
| 2026-05-04 16:40 | 40.33227 | 31.52112 | 38962 ft | 451 kts | 103° |
| 2026-05-04 16:41 | 40.29901 | 31.72266 | 38939 ft | 449 kts | 104° |
| 2026-05-04 16:43 | 40.26788 | 31.90897 | 38924 ft | 448 kts | 105° |
| 2026-05-04 16:43 | 40.23991 | 32.03963 | 38931 ft | 449 kts | 108° |
| 2026-05-04 16:45 | 40.19130 | 32.26313 | 38918 ft | 450 kts | 108° |
| 2026-05-04 16:46 | 40.14792 | 32.46029 | 38914 ft | 453 kts | 108° |
| 2026-05-04 16:47 | 40.11280 | 32.61865 | 38884 ft | 452 kts | 109° |
| 2026-05-04 16:48 | 40.07516 | 32.77475 | 38868 ft | 450 kts | 117° |
| 2026-05-04 16:49 | 40.00753 | 32.90949 | 38856 ft | 441 kts | 132° |
| 2026-05-04 16:50 | 39.93035 | 33.03229 | 38864 ft | 439 kts | 133° |
| 2026-05-04 16:51 | 39.87252 | 33.12405 | 38867 ft | 433 kts | 133° |
| 2026-05-04 16:52 | 39.79534 | 33.24590 | 38877 ft | 439 kts | 133° |
| 2026-05-04 16:53 | 39.73697 | 33.33779 | 38861 ft | 439 kts | 133° |
| 2026-05-04 16:54 | 39.65935 | 33.45955 | 38852 ft | 437 kts | 133° |
| 2026-05-04 16:55 | 39.54387 | 33.64134 | 38852 ft | 436 kts | 132° |
| 2026-05-04 16:56 | 39.44899 | 33.79443 | 38852 ft | 435 kts | 133° |
| 2026-05-04 16:57 | 39.39077 | 33.88452 | 38851 ft | 435 kts | 134° |
| 2026-05-04 16:58 | 39.31317 | 34.00429 | 38854 ft | 434 kts | 134° |
| 2026-05-04 17:00 | 39.19708 | 34.18421 | 38845 ft | 435 kts | 134° |
| 2026-05-04 17:01 | 39.10630 | 34.34074 | 38855 ft | 441 kts | 127° |
| 2026-05-04 17:02 | 39.02842 | 34.46043 | 38860 ft | 436 kts | 135° |
| 2026-05-04 17:03 | 38.96958 | 34.55008 | 38861 ft | 437 kts | 134° |
| 2026-05-04 17:03 | 38.91100 | 34.64015 | 38862 ft | 438 kts | 134° |
| 2026-05-04 17:04 | 38.83285 | 34.75989 | 38869 ft | 439 kts | 134° |
| 2026-05-04 17:05 | 38.75419 | 34.87994 | 38698 ft | 440 kts | 134° |
| 2026-05-04 17:06 | 38.71480 | 34.93989 | 38870 ft | 439 kts | 135° |
| 2026-05-04 17:06 | 38.69516 | 34.96972 | 38869 ft | 439 kts | 134° |
| 2026-05-04 17:07 | 38.64259 | 35.04948 | 38866 ft | 440 kts | 135° |
| 2026-05-04 17:07 | 38.59905 | 35.11538 | 38868 ft | 441 kts | 135° |
| 2026-05-04 17:08 | 38.53970 | 35.20500 | 38865 ft | 443 kts | 135° |
| 2026-05-04 17:09 | 38.49957 | 35.26496 | 38872 ft | 443 kts | 136° |
| 2026-05-04 17:09 | 38.45884 | 35.32428 | 38873 ft | 444 kts | 136° |
| 2026-05-04 17:10 | 38.35680 | 35.47291 | 38887 ft | 446 kts | 136° |
| 2026-05-04 17:11 | 38.31615 | 35.53203 | 38855 ft | 444 kts | 136° |
| 2026-05-04 17:11 | 38.27547 | 35.59107 | 38419 ft | 442 kts | 136° |
| 2026-05-04 17:12 | 38.25521 | 35.62043 | 38148 ft | 440 kts | 136° |
| 2026-05-04 17:12 | 38.21486 | 35.67880 | 37607 ft | 439 kts | 136° |
| 2026-05-04 17:13 | 38.15440 | 35.76608 | 36766 ft | 438 kts | 136° |
| 2026-05-04 17:14 | 38.09404 | 35.85301 | 35426 ft | 435 kts | 136° |
| 2026-05-04 17:14 | 38.07406 | 35.88173 | 34942 ft | 434 kts | 136° |
| 2026-05-04 17:14 | 38.03401 | 35.93920 | 33924 ft | 435 kts | 136° |
| 2026-05-04 17:15 | 38.01399 | 35.96789 | 33324 ft | 433 kts | 135° |
| 2026-05-04 17:15 | 37.97409 | 36.02499 | 32113 ft | 432 kts | 135° |
| 2026-05-04 17:16 | 37.93416 | 36.08201 | 30987 ft | 433 kts | 135° |
| 2026-05-04 17:16 | 37.87491 | 36.16648 | 29293 ft | 423 kts | 134° |
| 2026-05-04 17:17 | 37.85623 | 36.19311 | 28739 ft | 417 kts | 135° |
| 2026-05-04 17:17 | 37.79988 | 36.27338 | 27023 ft | 401 kts | 135° |
| 2026-05-04 17:18 | 37.78144 | 36.29966 | 26462 ft | 397 kts | 135° |
| 2026-05-04 17:18 | 37.74513 | 36.35132 | 25340 ft | 389 kts | 135° |
| 2026-05-04 17:19 | 37.70939 | 36.40209 | 24195 ft | 385 kts | 136° |
| 2026-05-04 17:19 | 37.67403 | 36.45225 | 23052 ft | 379 kts | 136° |
| 2026-05-04 17:20 | 37.63938 | 36.50133 | 21957 ft | 370 kts | 136° |
| 2026-05-04 17:20 | 37.60544 | 36.54931 | 20865 ft | 364 kts | 136° |
| 2026-05-04 17:20 | 37.58859 | 36.57310 | 20311 ft | 361 kts | 136° |
| 2026-05-04 17:21 | 37.55531 | 36.62004 | 19227 ft | 357 kts | 136° |
| 2026-05-04 17:21 | 37.52253 | 36.66619 | 18142 ft | 354 kts | 137° |
| 2026-05-04 17:22 | 37.50617 | 36.68921 | 17581 ft | 351 kts | 136° |
| 2026-05-04 17:22 | 37.48998 | 36.71208 | 17032 ft | 349 kts | 136° |
| 2026-05-04 17:23 | 37.44239 | 36.78031 | 15435 ft | 343 kts | 136° |
| 2026-05-04 17:23 | 37.42664 | 36.80282 | 14901 ft | 342 kts | 136° |
| 2026-05-04 17:23 | 37.39526 | 36.84759 | 13852 ft | 340 kts | 136° |
| 2026-05-04 17:24 | 37.37961 | 36.86988 | 13295 ft | 339 kts | 136° |
| 2026-05-04 17:24 | 37.33320 | 36.93592 | 11729 ft | 333 kts | 136° |
| 2026-05-04 17:25 | 37.31787 | 36.95770 | 11212 ft | 332 kts | 136° |
| 2026-05-04 17:25 | 37.28735 | 37.00102 | 10201 ft | 330 kts | 136° |
| 2026-05-04 17:26 | 37.25798 | 37.04036 | 9910 ft | 299 kts | 145° |
| 2026-05-04 17:26 | 37.20772 | 37.08075 | 9220 ft | 285 kts | 154° |
| 2026-05-04 17:27 | 37.17401 | 37.10654 | 8477 ft | 285 kts | 154° |
| 2026-05-04 17:27 | 37.14048 | 37.13233 | 7688 ft | 280 kts | 154° |
| 2026-05-04 17:28 | 37.10773 | 37.15755 | 7247 ft | 267 kts | 154° |
| 2026-05-04 17:29 | 37.06829 | 37.18793 | 7041 ft | 231 kts | 155° |
| 2026-05-04 17:29 | 37.03107 | 37.21654 | 6688 ft | 186 kts | 156° |
| 2026-05-04 17:30 | 37.00186 | 37.23936 | 6102 ft | 151 kts | 148° |
| 2026-05-04 17:31 | 36.99371 | 37.26433 | 5468 ft | 160 kts | 111° |
| 2026-05-04 17:31 | 36.98550 | 37.30369 | 4575 ft | 148 kts | 111° |
| 2026-05-04 17:32 | 36.97993 | 37.32957 | 4596 ft | 155 kts | 111° |
| 2026-05-04 17:33 | 36.97161 | 37.36875 | 4209 ft | 152 kts | 111° |
| 2026-05-04 17:33 | 36.96889 | 37.38150 | 3876 ft | 151 kts | 111° |
| 2026-05-04 17:34 | 36.96098 | 37.41847 | 3136 ft | 142 kts | 111° |
| 2026-05-04 17:34 | 36.95836 | 37.43013 | 2896 ft | 138 kts | 108° |
| 2026-05-04 17:35 | 36.95119 | 37.46405 | 2299 ft | 135 kts | 108° |
| 2026-05-04 17:35 | 36.94781 | 37.47981 | 2225 ft | 46 kts | 107° |
| 2026-05-04 17:35 | 36.94700 | 37.48354 | 2222 ft | 43 kts | 104° |
| 2026-05-04 17:36 | 36.94627 | 37.48701 | 2221 ft | 39 kts | 105° |
| 2026-05-04 17:36 | 36.94562 | 37.48820 | 2221 ft | 12 kts | 136° |
| 2026-05-04 17:36 | 36.94547 | 37.48838 | 2220 ft | 3 kts | 137° |
| 2026-05-04 17:36 | 36.94525 | 37.48863 | 2223 ft | 6 kts | 136° |
| 2026-05-04 17:37 | 36.94487 | 37.48909 | 2223 ft | 9 kts | 136° |
| 2026-05-04 17:37 | 36.94429 | 37.48925 | 2221 ft | 8 kts | 212° |
| 2026-05-04 17:37 | 36.94425 | 37.48862 | 2224 ft | 9 kts | 282° |
| 2026-05-04 17:37 | 36.94444 | 37.48775 | 2230 ft | 13 kts | 285° |
| 2026-05-04 17:38 | 36.94471 | 37.48651 | 2225 ft | 17 kts | 285° |
| 2026-05-04 17:38 | 36.94503 | 37.48499 | 2223 ft | 19 kts | 284° |
| 2026-05-04 17:38 | 36.94540 | 37.48332 | 2225 ft | 21 kts | 285° |
| 2026-05-04 17:38 | 36.94578 | 37.48151 | 2224 ft | 22 kts | 285° |
| 2026-05-04 17:39 | 36.94646 | 37.47822 | 2225 ft | 9 kts | 266° |
| 2026-05-04 17:39 | 36.94592 | 37.47785 | 2223 ft | 10 kts | 196° |
| 2026-05-04 17:39 | 36.94526 | 37.47763 | 2223 ft | 4 kts | 193° |
| 2026-05-04 17:40 | 36.94509 | 37.47759 | 2222 ft | 4 kts | 193° |
| 2026-05-04 17:40 | 36.94497 | 37.47756 | 2222 ft | 2 kts | 193° |
| 2026-05-04 17:40 | 36.94492 | 37.47754 | 2222 ft | 0 kts | 193° |